createdAt,value
2018-09-11T00:03:05.179Z,16.94
2018-09-11T00:08:02.792Z,17.04
2018-09-11T00:12:59.520Z,17.01
2018-09-11T00:17:55.404Z,16.99
2018-09-11T00:22:51.105Z,16.96
2018-09-11T00:27:47.682Z,16.93
2018-09-11T00:32:43.386Z,16.97
2018-09-11T00:37:39.393Z,17.08
2018-09-11T00:42:35.315Z,17.04
2018-09-11T00:47:32.275Z,16.91
2018-09-11T00:52:27.785Z,16.90
2018-09-11T00:57:24.558Z,16.84
2018-09-11T01:02:21.163Z,16.84
2018-09-11T01:07:16.435Z,16.93
2018-09-11T01:12:12.756Z,16.90
2018-09-11T01:17:09.746Z,16.90
2018-09-11T01:22:05.210Z,16.90
2018-09-11T01:27:01.016Z,16.90
2018-09-11T01:31:57.217Z,16.83
2018-09-11T01:36:54.062Z,16.83
2018-09-11T01:41:49.581Z,16.81
2018-09-11T01:46:47.068Z,16.78
2018-09-11T01:51:42.438Z,16.81
2018-09-11T01:56:38.196Z,16.78
2018-09-11T02:01:34.355Z,16.71
2018-09-11T02:06:30.428Z,16.68
2018-09-11T02:11:26.300Z,16.61
2018-09-11T02:16:21.928Z,16.61
2018-09-11T02:21:18.308Z,16.65
2018-09-11T02:26:14.344Z,16.58
2018-09-11T02:31:10.263Z,16.47
2018-09-11T02:36:06.171Z,16.47
2018-09-11T02:41:01.892Z,16.42
2018-09-11T02:45:57.826Z,16.49
2018-09-11T02:50:53.757Z,16.47
2018-09-11T02:55:49.781Z,16.56
2018-09-11T03:00:45.721Z,16.53
2018-09-11T03:05:41.496Z,16.60
2018-09-11T03:10:37.271Z,16.54
2018-09-11T03:15:32.999Z,16.38
2018-09-11T03:20:30.007Z,16.32
2018-09-11T03:25:25.516Z,16.33
2018-09-11T03:30:21.502Z,16.23
2018-09-11T03:35:17.109Z,16.13
2018-09-11T03:40:12.910Z,16.20
2018-09-11T03:45:08.616Z,16.13
2018-09-11T03:50:04.685Z,16.16
2018-09-11T03:55:01.427Z,16.20
2018-09-11T03:59:58.285Z,16.20
2018-09-11T04:04:53.927Z,16.04
2018-09-11T04:09:50.552Z,16.17
2018-09-11T04:14:46.190Z,16.24
2018-09-11T04:19:42.154Z,16.17
2018-09-11T04:24:38.134Z,16.21
2018-09-11T04:29:34.311Z,16.13
2018-09-11T04:34:29.911Z,16.01
2018-09-11T04:39:25.605Z,16.04
2018-09-11T04:44:21.487Z,15.92
2018-09-11T04:49:17.416Z,15.97
2018-09-11T04:54:13.381Z,15.92
2018-09-11T04:59:09.057Z,15.98
2018-09-11T05:04:05.019Z,16.08
2018-09-11T05:09:00.844Z,15.97
2018-09-11T05:13:56.703Z,15.97
2018-09-11T05:18:52.584Z,16.12
2018-09-11T05:23:48.918Z,16.08
2018-09-11T05:28:44.594Z,16.08
2018-09-11T05:33:40.266Z,16.08
2018-09-11T05:38:36.587Z,16.17
2018-09-11T05:43:32.501Z,16.17
2018-09-11T05:48:28.589Z,16.20
2018-09-11T05:53:24.668Z,16.36
2018-09-11T05:58:20.598Z,16.49
2018-09-11T06:03:16.613Z,16.66
2018-09-11T06:08:12.635Z,16.61
2018-09-11T06:13:08.658Z,16.69
2018-09-11T06:18:04.916Z,16.78
2018-09-11T06:23:02.065Z,16.96
2018-09-11T06:27:57.658Z,16.97
2018-09-11T06:32:53.481Z,17.09
2018-09-11T06:37:49.655Z,17.16
2018-09-11T06:42:46.591Z,17.31
2018-09-11T06:47:42.452Z,17.41
2018-09-11T06:52:38.786Z,17.51
2018-09-11T06:57:35.677Z,17.51
2018-09-11T07:02:31.211Z,17.68
2018-09-11T07:07:27.236Z,17.79
2018-09-11T07:12:24.602Z,17.98
2018-09-11T07:17:21.751Z,18.13
2018-09-11T07:22:18.574Z,18.29
2018-09-11T07:27:14.378Z,18.25
2018-09-11T07:32:10.510Z,18.45
2018-09-11T07:37:06.512Z,18.70
2018-09-11T07:42:02.547Z,18.74
2018-09-11T07:46:58.577Z,18.92
2018-09-11T07:51:54.500Z,19.00
2018-09-11T07:56:50.585Z,18.93
2018-09-11T08:01:47.160Z,18.99
2018-09-11T08:06:43.370Z,19.26
2018-09-11T08:11:39.304Z,19.30
2018-09-11T08:16:35.453Z,19.30
2018-09-11T08:21:31.412Z,19.39
2018-09-11T08:26:28.073Z,19.69
2018-09-11T08:31:24.744Z,19.56
2018-09-11T08:36:20.711Z,19.76
2018-09-11T08:41:17.696Z,19.55
2018-09-11T08:46:14.491Z,19.55
2018-09-11T08:51:10.040Z,19.74
2018-09-11T08:56:07.069Z,19.81
2018-09-11T09:01:03.729Z,19.73
2018-09-11T09:06:00.432Z,19.71
2018-09-11T09:10:56.059Z,19.89
2018-09-11T09:15:52.122Z,19.88
2018-09-11T09:20:47.967Z,19.85
2018-09-11T09:25:44.037Z,19.84
2018-09-11T09:30:40.802Z,20.07
2018-09-11T09:35:36.963Z,20.22
2018-09-11T09:40:33.466Z,20.48
2018-09-11T09:45:29.593Z,20.77
2018-09-11T09:50:26.726Z,20.75
2018-09-11T09:55:22.209Z,21.02
2018-09-11T10:00:19.244Z,20.99
2018-09-11T10:05:15.015Z,21.25
2018-09-11T10:10:12.520Z,21.45
2018-09-11T10:15:08.251Z,21.60
2018-09-11T10:20:04.597Z,21.76
2018-09-11T10:25:02.708Z,22.22
2018-09-11T10:29:58.733Z,22.43
2018-09-11T10:34:55.521Z,22.69
2018-09-11T10:39:51.260Z,22.66
2018-09-11T10:44:48.489Z,22.68
2018-09-11T10:49:44.339Z,23.08
2018-09-11T10:54:40.736Z,23.21
2018-09-11T10:59:37.817Z,23.50
2018-09-11T11:04:34.574Z,23.58
2018-09-11T11:09:30.994Z,23.84
2018-09-11T11:14:28.010Z,23.93
2018-09-11T11:19:24.194Z,24.03
2018-09-11T11:24:20.635Z,24.36
2018-09-11T11:29:16.985Z,24.29
2018-09-11T11:34:13.106Z,24.47
2018-09-11T11:39:09.364Z,24.63
2018-09-11T11:44:05.513Z,24.93
2018-09-11T11:49:01.502Z,24.92
2018-09-11T11:53:57.226Z,24.40
2018-09-11T11:58:53.091Z,24.20
2018-09-11T12:03:47.541Z,24.30
2018-09-11T12:08:43.214Z,24.38
2018-09-11T12:13:39.373Z,24.58
2018-09-11T12:18:35.719Z,24.77
2018-09-11T12:23:32.846Z,24.85
2018-09-11T12:28:28.560Z,24.57
2018-09-11T12:33:23.800Z,24.30
2018-09-11T12:38:19.719Z,24.23
2018-09-11T12:43:15.625Z,24.84
2018-09-11T12:48:12.897Z,24.81
2018-09-11T12:53:08.591Z,24.57
2018-09-11T12:58:04.308Z,24.61
2018-09-11T13:03:00.212Z,24.78
2018-09-11T13:07:57.506Z,24.68
2018-09-11T13:12:53.008Z,24.70
2018-09-11T13:17:49.077Z,24.74
2018-09-11T13:22:45.072Z,24.80
2018-09-11T13:27:41.161Z,24.91
2018-09-11T13:32:37.118Z,24.86
2018-09-11T13:37:33.053Z,24.89
2018-09-11T13:42:30.024Z,24.93
2018-09-11T13:47:25.799Z,25.11
2018-09-11T13:52:21.897Z,25.08
2018-09-11T13:57:18.392Z,25.04
2018-09-11T14:02:14.554Z,25.11
2018-09-11T14:07:10.468Z,25.07
2018-09-11T14:12:07.573Z,25.21
2018-09-11T14:17:03.871Z,25.23
2018-09-11T14:21:59.780Z,25.21
2018-09-11T14:26:56.828Z,25.14
2018-09-11T14:31:53.100Z,25.14
2018-09-11T14:36:49.218Z,25.35
2018-09-11T14:41:45.277Z,25.35
2018-09-11T14:46:41.399Z,25.35
2018-09-11T14:51:37.314Z,25.36
2018-09-11T14:56:34.355Z,25.40
2018-09-11T15:01:30.119Z,25.38
2018-09-11T15:06:26.178Z,25.46
2018-09-11T15:11:22.159Z,25.41
2018-09-11T15:16:19.189Z,25.32
2018-09-11T15:21:15.229Z,25.43
2018-09-11T15:26:11.197Z,25.50
2018-09-11T15:31:07.229Z,25.44
2018-09-11T15:36:04.102Z,25.55
2018-09-11T15:41:00.941Z,25.54
2018-09-11T15:45:57.850Z,25.48
2018-09-11T15:50:53.498Z,25.63
2018-09-11T15:55:49.773Z,25.69
2018-09-11T16:00:47.220Z,25.66
2018-09-11T16:05:43.053Z,25.72
2018-09-11T16:10:38.894Z,25.63
2018-09-11T16:15:34.785Z,25.58
2018-09-11T16:20:31.805Z,25.36
2018-09-11T16:25:27.396Z,25.31
2018-09-11T16:30:23.410Z,25.28
2018-09-11T16:35:19.211Z,25.21
2018-09-11T16:40:15.101Z,25.26
2018-09-11T16:45:11.101Z,25.23
2018-09-11T16:50:06.954Z,25.16
2018-09-11T16:55:03.859Z,25.07
2018-09-11T16:59:59.927Z,25.06
2018-09-11T17:04:56.742Z,24.89
2018-09-11T17:09:52.397Z,24.78
2018-09-11T17:14:49.275Z,24.77
2018-09-11T17:19:44.912Z,24.68
2018-09-11T17:24:41.854Z,24.60
2018-09-11T17:29:37.889Z,24.55
2018-09-11T17:34:33.672Z,24.40
2018-09-11T17:39:29.714Z,24.32
2018-09-11T17:44:25.617Z,24.20
2018-09-11T17:49:22.460Z,24.08
2018-09-11T17:54:18.045Z,24.06
2018-09-11T17:59:14.166Z,23.99
2018-09-11T18:04:10.124Z,23.95
2018-09-11T18:09:06.129Z,23.93
2018-09-11T18:14:02.232Z,23.92
2018-09-11T18:18:57.944Z,23.87
2018-09-11T18:23:54.246Z,23.80
2018-09-11T18:28:50.145Z,23.63
2018-09-11T18:33:46.124Z,23.61
2018-09-11T18:38:41.822Z,23.59
2018-09-11T18:43:38.237Z,23.58
2018-09-11T18:48:34.211Z,23.54
2018-09-11T18:53:29.917Z,23.37
2018-09-11T18:58:27.326Z,23.39
2018-09-11T19:03:22.911Z,23.27
2018-09-11T19:08:18.852Z,23.24
2018-09-11T19:13:15.411Z,23.08
2018-09-11T19:18:11.206Z,23.08
2018-09-11T19:23:07.225Z,22.98
2018-09-11T19:28:03.916Z,22.87
2018-09-11T19:32:59.837Z,22.84
2018-09-11T19:37:55.526Z,22.78
2018-09-11T19:42:51.356Z,22.76
2018-09-11T19:47:47.066Z,22.54
2018-09-11T19:52:43.165Z,22.54
2018-09-11T19:57:38.903Z,22.47
2018-09-11T20:02:34.598Z,22.35
2018-09-11T20:07:30.788Z,22.33
2018-09-11T20:12:26.551Z,22.33
2018-09-11T20:17:22.746Z,22.18
2018-09-11T20:22:18.630Z,22.14
2018-09-11T20:27:14.463Z,22.04
2018-09-11T20:32:10.385Z,21.93
2018-09-11T20:37:06.600Z,21.85
2018-09-11T20:42:02.547Z,21.75
2018-09-11T20:46:58.343Z,21.67
2018-09-11T20:51:55.304Z,21.73
2018-09-11T20:56:51.991Z,21.67
2018-09-11T21:01:47.648Z,21.54
2018-09-11T21:06:43.677Z,21.45
2018-09-11T21:11:39.793Z,21.29
2018-09-11T21:16:38.726Z,21.33
2018-09-11T21:21:35.007Z,21.32
2018-09-11T21:26:30.727Z,21.25
2018-09-11T21:31:26.714Z,21.24
2018-09-11T21:36:23.795Z,21.09
2018-09-11T21:41:19.450Z,21.11
2018-09-11T21:46:15.864Z,20.99
2018-09-11T21:51:11.663Z,20.99
2018-09-11T21:56:07.511Z,20.96
2018-09-11T22:01:04.204Z,20.82
2018-09-11T22:05:59.459Z,20.85
2018-09-11T22:10:56.812Z,20.82
2018-09-11T22:15:52.237Z,20.90
2018-09-11T22:20:49.169Z,20.78
2018-09-11T22:25:45.916Z,20.84
2018-09-11T22:30:41.527Z,20.78
2018-09-11T22:35:37.223Z,20.85
2018-09-11T22:40:33.253Z,20.67
2018-09-11T22:45:29.266Z,20.80
2018-09-11T22:50:25.481Z,20.67
2018-09-11T22:55:22.324Z,20.59
2018-09-11T23:00:19.035Z,20.58
2018-09-11T23:05:15.006Z,20.58
2018-09-11T23:10:10.927Z,20.51
2018-09-11T23:15:07.872Z,20.50
2018-09-11T23:20:03.468Z,20.37
2018-09-11T23:24:59.398Z,20.39
2018-09-11T23:29:55.401Z,20.41
2018-09-11T23:34:52.054Z,20.51
2018-09-11T23:39:47.987Z,20.51
2018-09-11T23:44:43.724Z,20.56
2018-09-11T23:49:39.415Z,20.52
2018-09-11T23:54:35.450Z,20.51
2018-09-11T23:59:32.485Z,20.50
